createdAt,value
2019-04-16T00:02:10.910Z,6.01
2019-04-16T00:04:57.671Z,5.90
2019-04-16T00:07:52.146Z,5.86
2019-04-16T00:10:25.343Z,6.05
2019-04-16T00:13:04.043Z,5.89
2019-04-16T00:15:34.182Z,5.71
2019-04-16T00:18:03.009Z,5.71
2019-04-16T00:20:37.989Z,5.64
2019-04-16T00:23:12.406Z,5.67
2019-04-16T00:25:40.602Z,5.42
2019-04-16T00:28:09.408Z,5.42
2019-04-16T00:30:37.865Z,5.26
2019-04-16T00:33:04.640Z,5.26
2019-04-16T00:35:33.938Z,5.30
2019-04-16T00:38:03.482Z,5.31
2019-04-16T00:40:33.981Z,5.23
2019-04-16T00:43:03.184Z,5.17
2019-04-16T00:45:31.487Z,5.21
2019-04-16T00:47:58.742Z,5.02
2019-04-16T00:50:26.204Z,4.95
2019-04-16T00:52:54.373Z,4.90
2019-04-16T00:55:21.181Z,4.90
2019-04-16T00:57:48.672Z,4.81
2019-04-16T01:00:17.548Z,4.81
2019-04-16T01:02:46.910Z,4.67
2019-04-16T01:05:13.097Z,4.72
2019-04-16T01:07:39.793Z,4.96
2019-04-16T01:10:06.770Z,4.97
2019-04-16T01:12:33.458Z,5.03
2019-04-16T01:15:01.062Z,5.03
2019-04-16T01:17:28.056Z,5.11
2019-04-16T01:19:55.816Z,5.17
2019-04-16T01:22:22.403Z,5.23
2019-04-16T01:24:51.874Z,5.24
2019-04-16T01:27:21.303Z,5.23
2019-04-16T01:29:47.888Z,5.18
2019-04-16T01:32:34.351Z,5.11
2019-04-16T01:35:23.208Z,5.04
2019-04-16T01:38:15.337Z,5.02
2019-04-16T01:41:07.202Z,5.09
2019-04-16T01:43:34.103Z,4.97
2019-04-16T01:46:02.460Z,5.15
2019-04-16T01:48:30.020Z,5.08
2019-04-16T01:50:56.697Z,4.96
2019-04-16T01:53:23.486Z,4.77
2019-04-16T01:55:50.068Z,4.81
2019-04-16T01:58:16.776Z,4.56
2019-04-16T02:00:43.551Z,4.38
2019-04-16T02:03:11.621Z,4.22
2019-04-16T02:05:38.443Z,4.19
2019-04-16T02:08:05.227Z,4.32
2019-04-16T02:10:38.516Z,4.41
2019-04-16T02:13:05.247Z,4.37
2019-04-16T02:15:32.044Z,4.27
2019-04-16T02:17:59.579Z,4.39
2019-04-16T02:20:26.827Z,4.29
2019-04-16T02:22:53.529Z,4.29
2019-04-16T02:25:39.831Z,4.10
2019-04-16T02:30:39.908Z,3.82
2019-04-16T02:33:06.949Z,3.73
2019-04-16T02:35:33.719Z,3.61
2019-04-16T02:38:00.708Z,3.41
2019-04-16T02:40:27.515Z,3.47
2019-04-16T02:42:54.342Z,3.31
2019-04-16T02:45:40.733Z,3.19
2019-04-16T02:48:07.531Z,3.10
2019-04-16T02:50:43.336Z,2.98
2019-04-16T02:53:29.788Z,2.99
2019-04-16T02:56:34.444Z,3.12
2019-04-16T02:59:27.660Z,3.10
2019-04-16T03:02:22.698Z,3.49
2019-04-16T03:04:58.148Z,3.47
2019-04-16T03:07:24.375Z,3.66
2019-04-16T03:10:01.062Z,3.48
2019-04-16T03:12:20.873Z,3.53
2019-04-16T03:14:48.447Z,3.70
2019-04-16T03:17:43.740Z,3.57
2019-04-16T03:20:11.204Z,3.58
2019-04-16T03:22:37.997Z,3.43
2019-04-16T03:25:06.112Z,3.49
2019-04-16T03:27:32.928Z,3.46
2019-04-16T03:30:03.550Z,3.35
2019-04-16T03:32:33.207Z,3.42
2019-04-16T03:34:58.592Z,3.26
2019-04-16T03:37:25.188Z,3.30
2019-04-16T03:39:51.769Z,3.24
2019-04-16T03:42:18.561Z,3.31
2019-04-16T03:44:45.128Z,3.22
2019-04-16T03:47:11.942Z,3.11
2019-04-16T03:49:38.603Z,3.08
2019-04-16T03:52:08.436Z,3.02
2019-04-16T03:54:34.000Z,3.10
2019-04-16T03:57:02.222Z,3.06
2019-04-16T03:59:29.381Z,3.08
2019-04-16T04:01:56.155Z,3.16
2019-04-16T04:04:28.929Z,2.75
2019-04-16T04:06:52.881Z,2.91
2019-04-16T04:09:22.388Z,2.93
2019-04-16T04:11:49.629Z,3.06
2019-04-16T04:14:16.343Z,2.94
2019-04-16T04:16:43.091Z,2.91
2019-04-16T04:19:14.096Z,2.83
2019-04-16T04:21:38.482Z,2.89
2019-04-16T04:24:05.282Z,2.64
2019-04-16T04:26:31.960Z,2.48
2019-04-16T04:28:58.544Z,2.60
2019-04-16T04:31:25.223Z,2.43
2019-04-16T04:33:51.922Z,2.56
2019-04-16T04:36:19.694Z,2.66
2019-04-16T04:38:47.390Z,2.70
2019-04-16T04:41:14.067Z,2.69
2019-04-16T04:43:40.745Z,2.78
2019-04-16T04:46:12.520Z,2.96
2019-04-16T04:48:36.089Z,2.85
2019-04-16T04:51:08.209Z,3.09
2019-04-16T04:53:32.745Z,3.13
2019-04-16T04:55:59.427Z,3.17
2019-04-16T04:58:26.134Z,3.14
2019-04-16T05:00:52.949Z,3.24
2019-04-16T05:03:37.738Z,3.10
2019-04-16T05:06:05.472Z,3.24
2019-04-16T05:08:32.504Z,3.05
2019-04-16T05:11:02.758Z,3.09
2019-04-16T05:13:28.138Z,3.13
2019-04-16T05:15:54.918Z,3.16
2019-04-16T05:18:21.507Z,3.29
2019-04-16T05:20:48.192Z,3.39
2019-04-16T05:23:14.867Z,3.59
2019-04-16T05:25:41.669Z,3.76
2019-04-16T05:28:11.681Z,3.80
2019-04-16T05:30:36.850Z,3.86
2019-04-16T05:33:05.584Z,4.01
2019-04-16T05:35:32.246Z,3.92
2019-04-16T05:37:59.032Z,3.93
2019-04-16T05:40:27.618Z,3.98
2019-04-16T05:42:58.303Z,3.90
2019-04-16T05:45:24.033Z,4.11
2019-04-16T05:47:50.720Z,4.15
2019-04-16T05:50:17.864Z,4.24
2019-04-16T05:52:44.649Z,4.37
2019-04-16T05:55:28.780Z,4.37
2019-04-16T05:57:58.167Z,4.29
2019-04-16T06:00:32.368Z,4.39
2019-04-16T06:02:59.144Z,4.40
2019-04-16T06:05:27.974Z,4.75
2019-04-16T06:07:57.257Z,4.92
2019-04-16T06:10:23.970Z,4.86
2019-04-16T06:13:19.050Z,4.92
2019-04-16T06:19:03.624Z,5.35
2019-04-16T06:21:49.961Z,5.42
2019-04-16T06:24:23.358Z,5.61
2019-04-16T06:27:12.833Z,5.64
2019-04-16T06:29:50.638Z,5.85
2019-04-16T06:32:29.215Z,6.17
2019-04-16T06:35:14.122Z,7.10
2019-04-16T06:37:47.827Z,8.58
2019-04-16T06:40:32.912Z,10.33
2019-04-16T06:43:08.072Z,12.07
2019-04-16T06:45:42.460Z,14.08
2019-04-16T06:48:13.184Z,14.98
2019-04-16T06:50:58.753Z,16.08
2019-04-16T06:53:59.725Z,17.02
2019-04-16T06:56:44.458Z,18.06
2019-04-16T06:59:17.935Z,18.59
2019-04-16T07:02:16.399Z,19.02
2019-04-16T07:05:08.461Z,20.34
2019-04-16T07:07:53.508Z,21.30
2019-04-16T07:10:22.046Z,21.82
2019-04-16T07:12:48.846Z,20.94
2019-04-16T07:15:15.809Z,20.66
2019-04-16T07:17:42.577Z,20.27
2019-04-16T07:20:13.104Z,20.25
2019-04-16T07:22:37.743Z,20.02
2019-04-16T07:25:05.779Z,20.73
2019-04-16T07:27:41.916Z,20.20
2019-04-16T07:30:19.568Z,19.09
2019-04-16T07:32:53.450Z,19.63
2019-04-16T07:35:44.021Z,19.90
2019-04-16T07:38:13.695Z,21.68
2019-04-16T07:40:57.400Z,22.22
2019-04-16T07:43:42.166Z,21.93
2019-04-16T07:46:31.425Z,20.96
2019-04-16T07:49:09.721Z,22.73
2019-04-16T07:52:11.721Z,22.59
2019-04-16T07:54:56.025Z,23.55
2019-04-16T07:57:22.714Z,22.48
2019-04-16T07:59:51.733Z,22.74
2019-04-16T08:02:21.431Z,23.33
2019-04-16T08:04:48.435Z,24.02
2019-04-16T08:07:20.103Z,24.65
2019-04-16T08:09:43.920Z,25.06
2019-04-16T08:12:28.797Z,24.93
2019-04-16T08:14:39.231Z,24.72
2019-04-16T08:17:05.931Z,23.62
2019-04-16T08:19:37.141Z,23.58
2019-04-16T08:22:03.777Z,25.09
2019-04-16T08:24:34.561Z,26.09
2019-04-16T08:27:01.365Z,26.40
2019-04-16T08:29:28.306Z,26.77
2019-04-16T08:31:55.033Z,26.85
2019-04-16T08:34:21.845Z,26.75
2019-04-16T08:36:48.642Z,26.65
2019-04-16T08:39:15.523Z,26.91
2019-04-16T08:41:42.207Z,25.74
2019-04-16T08:44:10.386Z,26.31
2019-04-16T08:46:40.085Z,28.60
2019-04-16T08:49:06.288Z,29.71
2019-04-16T08:51:37.076Z,26.38
2019-04-16T08:54:01.670Z,27.68
2019-04-16T08:56:28.475Z,26.62
2019-04-16T08:58:59.898Z,26.77
2019-04-16T09:01:26.944Z,26.48
2019-04-16T09:03:53.731Z,27.00
2019-04-16T09:06:21.408Z,28.53
2019-04-16T09:09:24.392Z,28.24
2019-04-16T09:11:54.752Z,26.16
2019-04-16T09:14:25.660Z,26.96
2019-04-16T09:17:11.421Z,27.21
2019-04-16T09:19:40.079Z,26.71
2019-04-16T09:22:06.873Z,26.93
2019-04-16T09:24:41.654Z,26.37
2019-04-16T09:27:29.612Z,28.10
2019-04-16T09:30:22.159Z,27.61
2019-04-16T09:33:06.968Z,27.44
2019-04-16T09:35:38.049Z,28.43
2019-04-16T09:38:16.901Z,29.59
2019-04-16T09:40:51.470Z,27.75
2019-04-16T09:43:20.828Z,26.58
2019-04-16T09:45:47.946Z,27.42
2019-04-16T09:48:14.652Z,29.13
2019-04-16T09:50:46.703Z,29.73
2019-04-16T09:53:10.060Z,28.94
2019-04-16T09:55:36.758Z,30.01
2019-04-16T09:58:10.531Z,30.22
2019-04-16T10:01:18.320Z,29.61
2019-04-16T10:03:47.009Z,30.11
2019-04-16T10:06:13.823Z,30.26
2019-04-16T10:08:44.556Z,30.26
2019-04-16T10:11:09.197Z,32.32
2019-04-16T10:13:36.476Z,32.46
2019-04-16T10:16:03.598Z,32.54
2019-04-16T10:18:34.727Z,32.11
2019-04-16T10:20:59.022Z,31.64
2019-04-16T10:23:35.286Z,30.79
2019-04-16T10:26:02.381Z,32.49
2019-04-16T10:28:33.994Z,31.72
2019-04-16T10:31:00.902Z,31.75
2019-04-16T10:33:27.719Z,31.15
2019-04-16T10:35:57.367Z,31.76
2019-04-16T10:38:42.628Z,30.78
2019-04-16T10:41:13.046Z,26.35
2019-04-16T10:43:56.704Z,30.45
2019-04-16T10:46:41.770Z,31.41
2019-04-16T10:49:29.519Z,33.38
2019-04-16T10:52:27.997Z,34.21
2019-04-16T10:54:59.911Z,34.60
2019-04-16T10:57:46.448Z,33.53
2019-04-16T11:00:24.419Z,33.52
2019-04-16T11:03:28.673Z,32.49
2019-04-16T11:06:10.494Z,33.57
2019-04-16T11:08:37.298Z,33.63
2019-04-16T11:11:04.089Z,35.14
2019-04-16T11:13:42.705Z,34.42
2019-04-16T11:16:16.566Z,32.99
2019-04-16T11:18:43.555Z,34.71
2019-04-16T11:21:10.437Z,34.05
2019-04-16T11:23:37.142Z,33.86
2019-04-16T11:26:03.918Z,32.03
2019-04-16T11:28:30.725Z,29.29
2019-04-16T11:30:58.943Z,30.28
2019-04-16T11:33:27.506Z,31.37
2019-04-16T11:35:54.401Z,28.78
2019-04-16T11:38:25.270Z,29.39
2019-04-16T11:40:58.551Z,28.21
2019-04-16T11:43:29.333Z,27.01
2019-04-16T11:45:56.141Z,28.07
2019-04-16T11:48:27.136Z,30.70
2019-04-16T11:50:55.774Z,32.92
2019-04-16T11:53:22.486Z,30.79
2019-04-16T11:55:49.256Z,32.93
2019-04-16T11:58:38.442Z,32.58
2019-04-16T12:01:15.370Z,29.90
2019-04-16T12:04:14.571Z,32.93
2019-04-16T12:06:58.956Z,33.41
2019-04-16T12:10:00.415Z,32.56
2019-04-16T12:12:46.919Z,32.98
2019-04-16T12:15:17.749Z,32.46
2019-04-16T12:18:00.080Z,34.01
2019-04-16T12:20:44.924Z,34.51
2019-04-16T12:23:24.449Z,34.24
2019-04-16T12:26:10.213Z,33.81
2019-04-16T12:28:56.891Z,34.26
2019-04-16T12:31:46.067Z,31.92
2019-04-16T12:34:19.453Z,30.02
2019-04-16T12:37:18.184Z,31.52
2019-04-16T12:40:02.467Z,32.24
2019-04-16T12:42:34.831Z,33.13
2019-04-16T12:45:19.135Z,32.56
2019-04-16T12:47:59.263Z,32.56
2019-04-16T12:50:46.018Z,31.29
2019-04-16T12:53:21.547Z,31.25
2019-04-16T12:56:08.430Z,31.10
2019-04-16T12:58:50.400Z,29.67
2019-04-16T13:01:37.162Z,33.38
2019-04-16T13:04:11.047Z,33.75
2019-04-16T13:06:45.046Z,30.80
2019-04-16T13:09:26.955Z,30.62
2019-04-16T13:11:59.615Z,29.09
2019-04-16T13:14:59.944Z,30.10
2019-04-16T13:17:34.316Z,29.78
2019-04-16T13:20:11.987Z,28.28
2019-04-16T13:22:43.916Z,30.49
2019-04-16T13:25:17.340Z,30.65
2019-04-16T13:27:44.482Z,30.59
2019-04-16T13:30:11.384Z,32.31
2019-04-16T13:32:38.162Z,32.09
2019-04-16T13:35:05.480Z,33.31
2019-04-16T13:37:36.975Z,33.97
2019-04-16T13:40:04.064Z,33.53
2019-04-16T13:42:30.742Z,33.31
2019-04-16T13:45:21.690Z,33.21
2019-04-16T13:47:47.127Z,33.45
2019-04-16T13:50:39.919Z,31.24
2019-04-16T13:53:08.844Z,31.11
2019-04-16T13:55:58.170Z,31.93
2019-04-16T13:58:41.549Z,33.14
2019-04-16T14:01:14.556Z,33.14
2019-04-16T14:03:41.353Z,30.84
2019-04-16T14:06:10.389Z,28.25
2019-04-16T14:08:36.884Z,30.88
2019-04-16T14:11:03.679Z,31.35
2019-04-16T14:13:30.375Z,32.07
2019-04-16T14:15:57.343Z,31.45
2019-04-16T14:18:24.192Z,31.05
2019-04-16T14:20:50.886Z,31.04
2019-04-16T14:23:17.583Z,31.93
2019-04-16T14:25:44.663Z,31.85
2019-04-16T14:28:11.455Z,28.69
2019-04-16T14:30:43.556Z,28.82
2019-04-16T14:33:14.011Z,29.04
2019-04-16T14:35:40.742Z,29.80
2019-04-16T14:38:08.075Z,30.76
2019-04-16T14:40:34.874Z,30.45
2019-04-16T14:43:01.952Z,30.50
2019-04-16T14:45:43.565Z,30.21
2019-04-16T14:48:07.633Z,30.54
2019-04-16T14:50:33.055Z,30.88
2019-04-16T14:52:59.309Z,31.75
2019-04-16T14:55:59.689Z,32.16
2019-04-16T14:58:35.323Z,32.41
2019-04-16T15:01:14.865Z,31.15
2019-04-16T15:04:10.334Z,30.15
2019-04-16T15:07:02.697Z,28.64
2019-04-16T15:09:35.196Z,29.87
2019-04-16T15:12:24.629Z,29.62
2019-04-16T15:15:11.739Z,29.66
2019-04-16T15:18:01.927Z,29.35
2019-04-16T15:20:51.147Z,26.40
2019-04-16T15:23:34.757Z,26.69
2019-04-16T15:26:27.207Z,28.31
2019-04-16T15:29:09.247Z,28.54
2019-04-16T15:31:42.038Z,29.16
2019-04-16T15:34:17.978Z,28.76
2019-04-16T15:36:53.311Z,27.78
2019-04-16T15:39:25.007Z,28.14
2019-04-16T15:42:20.458Z,26.94
2019-04-16T15:45:09.144Z,24.59
2019-04-16T15:48:14.859Z,24.84
2019-04-16T15:51:01.408Z,25.72
2019-04-16T15:53:56.678Z,26.83
2019-04-16T15:56:32.493Z,26.46
2019-04-16T15:59:04.646Z,25.61
2019-04-16T16:01:57.189Z,25.39
2019-04-16T16:04:33.153Z,25.10
2019-04-16T16:07:09.225Z,24.61
2019-04-16T16:09:58.095Z,23.98
2019-04-16T16:12:25.349Z,23.82
2019-04-16T16:14:52.042Z,24.46
2019-04-16T16:17:19.494Z,24.31
2019-04-16T16:19:47.592Z,24.37
2019-04-16T16:22:14.149Z,24.63
2019-04-16T16:24:42.433Z,24.17
2019-04-16T16:27:09.636Z,25.27
2019-04-16T16:29:36.419Z,25.80
2019-04-16T16:32:03.259Z,25.31
2019-04-16T16:34:30.039Z,25.24
2019-04-16T16:36:56.633Z,23.50
2019-04-16T16:39:23.392Z,22.81
2019-04-16T16:41:50.094Z,22.61
2019-04-16T16:44:16.767Z,21.66
2019-04-16T16:46:57.432Z,21.49
2019-04-16T16:49:23.033Z,21.67
2019-04-16T16:52:09.485Z,21.38
2019-04-16T16:54:36.650Z,21.86
2019-04-16T16:57:10.930Z,21.06
2019-04-16T16:59:54.407Z,20.40
2019-04-16T17:02:29.686Z,20.14
2019-04-16T17:04:56.578Z,19.50
2019-04-16T17:07:23.441Z,18.83
2019-04-16T17:09:57.793Z,18.82
2019-04-16T17:12:24.498Z,18.72
2019-04-16T17:14:51.311Z,18.51
2019-04-16T17:17:18.206Z,18.24
2019-04-16T17:19:45.001Z,18.05
2019-04-16T17:22:14.717Z,17.96
2019-04-16T17:24:40.543Z,17.86
2019-04-16T17:27:07.429Z,17.62
2019-04-16T17:29:34.155Z,17.45
2019-04-16T17:32:00.962Z,17.23
2019-04-16T17:34:27.844Z,17.14
2019-04-16T17:36:54.962Z,17.23
2019-04-16T17:39:44.005Z,16.97
2019-04-16T17:42:11.467Z,16.87
2019-04-16T17:45:00.639Z,16.72
2019-04-16T17:47:47.106Z,16.72
2019-04-16T17:50:21.441Z,16.61
2019-04-16T17:53:11.864Z,16.53
2019-04-16T17:56:13.122Z,16.46
2019-04-16T17:58:49.989Z,16.26
2019-04-16T18:01:40.384Z,16.14
2019-04-16T18:04:17.444Z,15.97
2019-04-16T18:06:58.976Z,15.86
2019-04-16T18:09:40.135Z,15.86
2019-04-16T18:12:42.028Z,15.84
2019-04-16T18:15:16.982Z,15.76
2019-04-16T18:18:09.380Z,15.62
2019-04-16T18:20:58.739Z,15.58
2019-04-16T18:23:47.011Z,15.43
2019-04-16T18:26:45.751Z,15.43
2019-04-16T18:29:32.799Z,15.32
2019-04-16T18:32:34.889Z,15.24
2019-04-16T18:35:25.903Z,15.00
2019-04-16T18:38:15.045Z,15.02
2019-04-16T18:41:02.195Z,14.96
2019-04-16T18:43:44.216Z,14.89
2019-04-16T18:46:26.961Z,14.82
2019-04-16T18:48:57.273Z,14.77
2019-04-16T18:51:24.105Z,14.71
2019-04-16T18:53:51.938Z,14.58
2019-04-16T18:56:18.622Z,14.59
2019-04-16T18:58:47.163Z,14.50
2019-04-16T19:01:18.924Z,14.46
2019-04-16T19:03:45.738Z,14.37
2019-04-16T19:06:13.713Z,14.06
2019-04-16T19:08:42.284Z,13.90
2019-04-16T19:11:09.219Z,13.76
2019-04-16T19:13:36.037Z,13.68
2019-04-16T19:16:02.926Z,13.65
2019-04-16T19:18:29.738Z,13.73
2019-04-16T19:20:56.844Z,13.71
2019-04-16T19:23:23.550Z,13.57
2019-04-16T19:25:51.827Z,13.54
2019-04-16T19:28:21.644Z,13.62
2019-04-16T19:30:48.333Z,13.62
2019-04-16T19:33:14.936Z,13.52
2019-04-16T19:35:41.719Z,13.53
2019-04-16T19:38:08.409Z,13.61
2019-04-16T19:40:35.111Z,13.46
2019-04-16T19:43:03.173Z,13.30
2019-04-16T19:45:30.439Z,13.26
2019-04-16T19:48:00.241Z,13.13
2019-04-16T19:50:29.777Z,13.05
2019-04-16T19:52:54.989Z,12.99
2019-04-16T19:55:21.935Z,12.92
2019-04-16T19:57:48.658Z,12.80
2019-04-16T20:00:22.029Z,12.82
2019-04-16T20:02:44.160Z,12.87
2019-04-16T20:05:11.053Z,12.83
2019-04-16T20:07:37.644Z,12.85
2019-04-16T20:10:04.579Z,12.83
2019-04-16T20:12:31.264Z,12.85
2019-04-16T20:14:57.978Z,12.87
2019-04-16T20:17:24.757Z,12.78
2019-04-16T20:19:57.693Z,12.75
2019-04-16T20:22:25.716Z,12.84
2019-04-16T20:24:53.006Z,12.75
2019-04-16T20:27:19.817Z,12.62
2019-04-16T20:29:46.510Z,12.51
2019-04-16T20:32:13.114Z,12.36
2019-04-16T20:34:42.405Z,12.30
2019-04-16T20:37:08.607Z,12.26
2019-04-16T20:39:35.324Z,12.22
2019-04-16T20:42:02.102Z,12.22
2019-04-16T20:44:28.901Z,12.33
2019-04-16T20:46:58.571Z,12.26
2019-04-16T20:49:24.277Z,12.28
2019-04-16T20:51:50.951Z,12.15
2019-04-16T20:54:17.653Z,12.13
2019-04-16T20:56:44.316Z,12.04
2019-04-16T20:59:11.014Z,11.83
2019-04-16T21:01:37.970Z,11.83
2019-04-16T21:04:06.429Z,11.67
2019-04-16T21:06:33.587Z,11.73
2019-04-16T21:09:00.454Z,11.39
2019-04-16T21:11:27.174Z,11.61
2019-04-16T21:13:54.187Z,11.47
2019-04-16T21:16:21.397Z,11.29
2019-04-16T21:18:48.168Z,11.32
2019-04-16T21:21:14.805Z,11.39
2019-04-16T21:23:41.890Z,11.37
2019-04-16T21:26:08.587Z,11.45
2019-04-16T21:28:50.379Z,11.58
2019-04-16T21:31:22.154Z,11.49
2019-04-16T21:33:56.740Z,11.54
2019-04-16T21:36:37.989Z,11.36
2019-04-16T21:39:07.567Z,11.34
2019-04-16T21:41:34.266Z,11.45
2019-04-16T21:44:01.045Z,11.38
2019-04-16T21:46:27.732Z,11.34
2019-04-16T21:48:55.928Z,11.34
2019-04-16T21:51:24.320Z,11.25
2019-04-16T21:53:51.198Z,11.44
2019-04-16T21:56:17.892Z,11.36
2019-04-16T21:58:46.655Z,11.24
2019-04-16T22:01:25.368Z,11.18
2019-04-16T22:03:58.305Z,11.12
2019-04-16T22:06:25.246Z,11.11
2019-04-16T22:08:52.017Z,11.03
2019-04-16T22:11:18.613Z,11.00
2019-04-16T22:13:50.447Z,10.87
2019-04-16T22:16:13.917Z,10.88
2019-04-16T22:18:41.618Z,10.65
2019-04-16T22:21:10.703Z,10.72
2019-04-16T22:23:37.797Z,10.68
2019-04-16T22:26:04.600Z,10.87
2019-04-16T22:28:31.377Z,10.98
2019-04-16T22:30:58.178Z,11.03
2019-04-16T22:33:24.968Z,11.03
2019-04-16T22:35:51.664Z,10.93
2019-04-16T22:38:18.232Z,10.85
2019-04-16T22:40:58.821Z,10.69
2019-04-16T22:43:45.308Z,10.61
2019-04-16T22:46:37.489Z,10.55
2019-04-16T22:49:04.531Z,10.59
2019-04-16T22:51:31.283Z,10.66
2019-04-16T22:53:58.408Z,10.61
2019-04-16T22:56:39.422Z,10.59
2019-04-16T22:59:07.734Z,10.38
2019-04-16T23:01:36.032Z,10.54
2019-04-16T23:04:02.820Z,10.52
2019-04-16T23:06:29.539Z,10.60
2019-04-16T23:08:56.313Z,10.51
2019-04-16T23:11:23.717Z,10.29
2019-04-16T23:13:53.363Z,10.21
2019-04-16T23:16:20.164Z,10.38
2019-04-16T23:18:49.253Z,10.39
2019-04-16T23:21:15.312Z,10.43
2019-04-16T23:23:42.129Z,10.43
2019-04-16T23:26:08.830Z,10.53
2019-04-16T23:28:35.507Z,10.65
2019-04-16T23:31:02.346Z,10.68
2019-04-16T23:33:32.530Z,10.67
2019-04-16T23:35:57.706Z,10.67
2019-04-16T23:38:24.395Z,10.62
2019-04-16T23:40:50.985Z,10.91
2019-04-16T23:43:43.289Z,10.77
2019-04-16T23:46:26.023Z,10.75
2019-04-16T23:48:59.366Z,10.69
2019-04-16T23:51:32.001Z,10.90
2019-04-16T23:54:07.960Z,10.85
2019-04-16T23:56:44.824Z,10.86
2019-04-16T23:59:24.537Z,10.84
